Flight Track Log - Related Links

Times and Time Zones

All times are in EDT time to prevent confusion due to time zone crossing. See the ASA7037 flight status page for this flight to view local times or setup timezone preferences in your user account.

Time Position Orientation Groundspeed Altitude Reporting Facility
EDT Latitude Longitude Course Direction KTS MPH feet Rate Location/Type
Tue 09:59:21 PM 58.3333 -134.8000 255° West 240 276 6,400  Level Anchorage Center
Tue 10:00:21 PM 58.2667 -134.7500 158° South 260 299 8,900 2,500 Climbing Anchorage Center
Tue 10:01:21 PM 58.2000 -134.6667 147° Southeast 310 357 11,400 2,529 Climbing Anchorage Center
Tue 10:02:22 PM 58.1333 -134.5333 133° Southeast 370 426 14,000 2,579 Climbing Anchorage Center
Tue 10:03:00 PM 57.9221 -133.8427 138° Southeast  Level FlightAware Approximate
Tue 10:03:22 PM 58.0667 -134.3667 127° Southeast 390 449 16,600  Level Anchorage Center
Tue 10:04:22 PM 58.0000 -134.2000 127° Southeast 410 472 18,700 2,050 Climbing Anchorage Center
Tue 10:05:22 PM 57.9333 -134.0167 124° Southeast 430 495 20,700 2,200 Climbing Anchorage Center
Tue 10:06:22 PM 57.8667 -133.8167 122° Southeast 440 506 23,100 2,050 Climbing Anchorage Center
Tue 10:07:22 PM 57.7833 -133.6333 130° Southeast 450 518 24,800 1,700 Climbing Anchorage Center
Tue 10:08:22 PM 57.6833 -133.4833 141° Southeast 460 529 26,500 1,700 Climbing Anchorage Center
Tue 10:09:22 PM 57.5833 -133.3333 141° Southeast 480 552 28,200 1,900 Climbing Anchorage Center
Tue 10:10:22 PM 57.4833 -133.1833 141° Southeast 460 529 30,300 1,835 Climbing Anchorage Center
Tue 10:11:23 PM 57.3833 -133.0333 141° Southeast 460 529 31,900 1,339 Climbing Anchorage Center
Tue 10:12:23 PM 57.2833 -132.8833 141° Southeast 470 541 33,000 550 Climbing Anchorage Center
Tue 10:13:23 PM 57.1833 -132.7500 144° Southeast 460 529 33,000  Level Anchorage Center
Tue 10:14:23 PM 57.0667 -132.6000 145° Southeast 460 529 33,000  Level Anchorage Center
Tue 10:14:39 PM 57.0667 -132.6333 270° West 460 529 33,000  Level Vancouver Center
Tue 10:15:23 PM 56.9667 -132.4667 138° Southeast 470 541 33,000  Level Anchorage Center
Tue 10:16:23 PM 56.8667 -132.3167 141° Southeast 470 541 33,000  Level Anchorage Center
Tue 10:16:39 PM 56.8333 -132.3333 195° South 470 541 33,000  Level Vancouver Center
Tue 10:17:39 PM 56.7333 -132.2000 144° Southeast 460 529 33,000  Level Vancouver Center
Tue 10:18:24 PM 56.6667 -132.0333 126° Southeast 470 541 33,000  Level Anchorage Center
Tue 10:19:24 PM 56.5500 -131.9000 148° Southeast 470 541 33,000  Level Anchorage Center
Tue 10:19:39 PM 56.5167 -131.9333 209° Southwest 470 541 33,000  Level Vancouver Center
Tue 10:20:24 PM 56.4500 -131.7667 126° Southeast 470 541 33,000  Level Anchorage Center
Tue 10:21:24 PM 56.3500 -131.6167 140° Southeast 470 541 33,000  Level Anchorage Center
Tue 10:21:39 PM 56.3167 -131.6500 209° Southwest 460 529 33,000  Level Vancouver Center
Tue 10:22:39 PM 56.2167 -131.5000 140° Southeast 470 541 33,000  Level Vancouver Center
Tue 10:23:24 PM 56.1333 -131.3333 132° Southeast 470 541 33,000  Level Anchorage Center
Tue 10:23:39 PM 56.1000 -131.3667 209° Southwest 470 541 33,000  Level Vancouver Center
Tue 10:24:39 PM 56.0167 -131.2333 138° Southeast 470 541 33,000  Level Vancouver Center
Tue 10:25:24 PM 55.9167 -131.0667 137° Southeast 470 541 33,000  Level Anchorage Center
Tue 10:26:24 PM 55.8167 -130.9333 143° Southeast 470 541 33,000  Level Anchorage Center
Tue 10:26:39 PM 55.8000 -130.9500 209° Southwest 470 541 33,000  Level Vancouver Center
Tue 10:27:24 PM 55.7167 -130.8000 135° Southeast 470 541 33,000  Level Anchorage Center
Tue 10:28:25 PM 55.6167 -130.6667 143° Southeast 470 541 33,000  Level Anchorage Center
Tue 10:29:25 PM 55.5000 -130.5333 147° Southeast 470 541 33,000  Level Anchorage Center
Tue 10:30:25 PM 55.4000 -130.4000 143° Southeast 470 541 33,000  Level Anchorage Center
Tue 10:31:25 PM 55.3000 -130.2667 143° Southeast 480 552 33,000  Level Anchorage Center
Tue 10:32:25 PM 55.1833 -130.1333 147° Southeast 480 552 33,000  Level Anchorage Center
Tue 10:33:39 PM 55.0500 -130.0000 150° Southeast 470 541 33,000  Level Vancouver Center
Tue 10:34:39 PM 54.9333 -129.8667 147° Southeast 480 552 33,000  Level Vancouver Center
Tue 10:35:39 PM 54.8333 -129.7333 142° Southeast 470 541 33,000  Level Vancouver Center
Tue 10:36:39 PM 54.7333 -129.6000 142° Southeast 470 541 33,000  Level Vancouver Center
Tue 10:37:39 PM 54.6167 -129.4833 150° Southeast 470 541 33,000  Level Vancouver Center
Tue 10:38:39 PM 54.5000 -129.3500 146° Southeast 470 541 33,000  Level Vancouver Center
Tue 10:39:39 PM 54.4000 -129.2167 142° Southeast 470 541 33,000  Level Vancouver Center
Tue 10:40:39 PM 54.3000 -129.1167 150° Southeast 480 552 33,000  Level Vancouver Center
Tue 10:41:39 PM 54.1833 -128.9667 143° Southeast 470 541 33,000  Level Vancouver Center
Tue 10:42:39 PM 54.0833 -128.8667 150° Southeast 480 552 33,000  Level Vancouver Center
Tue 10:43:39 PM 53.9667 -128.7000 140° Southeast 480 552 33,000  Level Vancouver Center
Tue 10:44:39 PM 53.8500 -128.6000 153° Southeast 480 552 33,000  Level Vancouver Center
Tue 10:45:39 PM 53.7333 -128.4500 143° Southeast 480 552 33,000  Level Vancouver Center
Tue 10:46:39 PM 53.6333 -128.3500 149° Southeast 480 552 33,000  Level Vancouver Center
Tue 10:47:39 PM 53.5167 -128.2000 143° Southeast 480 552 33,000  Level Vancouver Center
Tue 10:48:39 PM 53.4167 -128.0833 145° Southeast 480 552 33,000  Level Vancouver Center
Tue 10:49:39 PM 53.3000 -127.9833 153° Southeast 470 541 33,000  Level Vancouver Center
Tue 10:50:39 PM 53.2000 -127.8667 145° Southeast 490 564 33,000  Level Vancouver Center
Tue 10:51:39 PM 53.0833 -127.7167 142° Southeast 480 552 33,000  Level Vancouver Center
Tue 10:52:39 PM 52.9667 -127.6167 153° Southeast 470 541 33,000  Level Vancouver Center
Tue 10:53:39 PM 52.8500 -127.5000 149° Southeast 470 541 33,000  Level Vancouver Center
Tue 10:54:39 PM 52.7500 -127.3833 145° Southeast 470 541 33,000  Level Vancouver Center
Tue 10:55:39 PM 52.6333 -127.2667 149° Southeast 470 541 33,000  Level Vancouver Center
Tue 10:56:39 PM 52.5333 -127.1500 145° Southeast 470 541 33,000  Level Vancouver Center
Tue 10:57:39 PM 52.4167 -127.0333 149° Southeast 470 541 33,000  Level Vancouver Center
Tue 10:58:39 PM 52.3000 -126.9167 149° Southeast 460 529 33,000  Level Vancouver Center
Tue 10:59:39 PM 52.2000 -126.8000 144° Southeast 470 541 33,000  Level Vancouver Center
Tue 11:00:39 PM 52.1000 -126.6833 144° Southeast 470 541 33,000  Level Vancouver Center
Tue 11:01:39 PM 51.9833 -126.5667 148° Southeast 470 541 33,000  Level Vancouver Center
Tue 11:02:39 PM 51.8667 -126.4500 148° Southeast 470 541 33,000  Level Vancouver Center
Tue 11:03:39 PM 51.7667 -126.3667 153° Southeast 470 541 33,000  Level Vancouver Center
Tue 11:04:39 PM 51.6500 -126.2500 148° Southeast 470 541 33,000  Level Vancouver Center
Tue 11:05:39 PM 51.5333 -126.1333 148° Southeast 470 541 33,000  Level Vancouver Center
Tue 11:06:39 PM 51.4333 -126.0167 144° Southeast 470 541 33,000  Level Vancouver Center
Tue 11:07:39 PM 51.3167 -125.9167 152° Southeast 470 541 33,000  Level Vancouver Center
Tue 11:08:39 PM 51.2167 -125.8000 144° Southeast 470 541 33,000  Level Vancouver Center
Tue 11:09:39 PM 51.1000 -125.6833 148° Southeast 470 541 33,000  Level Vancouver Center
Tue 11:10:39 PM 50.9833 -125.5833 152° Southeast 470 541 33,000  Level Vancouver Center
Tue 11:11:39 PM 50.8833 -125.4667 144° Southeast 470 541 33,000  Level Vancouver Center
Tue 11:12:39 PM 50.7667 -125.3500 148° Southeast 470 541 33,000  Level Vancouver Center
Tue 11:13:39 PM 50.6500 -125.2500 151° Southeast 470 541 33,000  Level Vancouver Center
Tue 11:14:39 PM 50.5333 -125.1333 148° Southeast 470 541 33,000  Level Vancouver Center
Tue 11:15:39 PM 50.4167 -125.0333 151° Southeast 470 541 33,000  Level Vancouver Center
Tue 11:16:39 PM 50.3000 -124.9167 147° Southeast 470 541 33,000  Level Vancouver Center
Tue 11:17:39 PM 50.2000 -124.8167 147° Southeast 470 541 33,000  Level Vancouver Center
Tue 11:18:39 PM 50.0833 -124.7333 155° Southeast 470 541 33,000  Level Vancouver Center
Tue 11:19:39 PM 49.9667 -124.6000 144° Southeast 470 541 33,000  Level Vancouver Center
Tue 11:20:39 PM 49.8500 -124.5167 155° Southeast 470 541 33,000  Level Vancouver Center
Tue 11:21:39 PM 49.7333 -124.4000 147° Southeast 470 541 33,000  Level Vancouver Center
Tue 11:22:39 PM 49.6333 -124.3167 152° Southeast 470 541 33,000  Level Vancouver Center
Tue 11:23:39 PM 49.5167 -124.2167 151° Southeast 470 541 33,000  Level Vancouver Center
Tue 11:24:39 PM 49.4000 -124.1000 147° Southeast 470 541 33,000  Level Vancouver Center
Tue 11:25:39 PM 49.2833 -124.0000 151° Southeast 470 541 33,000  Level Vancouver Center
Tue 11:26:39 PM 49.1833 -123.9000 147° Southeast 470 541 33,000  Level Vancouver Center
Tue 11:27:39 PM 49.0667 -123.8000 151° Southeast 460 529 33,000  Level Vancouver Center
Tue 11:28:39 PM 48.9500 -123.7000 151° Southeast 460 529 33,000  Level Vancouver Center
Tue 11:29:39 PM 48.8500 -123.6000 147° Southeast 460 529 33,000 -1,050 Level Vancouver Center
Tue 11:30:39 PM 48.7333 -123.5000 151° Southeast 460 529 30,900 -2,700 Descending Vancouver Center
Tue 11:31:39 PM 48.6333 -123.4167 151° Southeast 460 529 27,600 -3,150 Descending Vancouver Center
Tue 11:32:39 PM 48.5167 -123.3000 146° Southeast 450 518 24,600 -2,750 Descending Vancouver Center
Tue 11:33:39 PM 48.4167 -123.2167 151° Southeast 430 495 22,100 -2,100 Descending Vancouver Center
Tue 11:34:39 PM 48.3167 -123.1167 146° Southeast 420 483 20,400 -1,784 Descending Vancouver Center
Tue 11:35:30 PM 48.2778 -123.0647 138° Southeast 407 468 18,800 -2,213 Descending Seattle Center
Tue 11:36:41 PM 48.1606 -122.9603 149° Southeast 365 420 15,900 -2,421 Descending Seattle Center
Tue 11:37:24 PM 48.0956 -122.9031 150° Southeast 352 405 14,200 -1,981 Descending Seattle Center
Tue 11:38:24 PM 48.0236 -122.8167 141° Southeast 331 381 12,500 -1,438 Descending Seattle Center
Tue 11:39:25 PM 47.9719 -122.7161 127° Southeast 292 336 11,300 -1,200 Descending Seattle Center
Tue 11:40:34 PM 47.9206 -122.6175 128° Southeast 289 333 9,900 -1,328 Descending Seattle Center
Tue 11:41:27 PM 47.8747 -122.5383 131° Southeast 272 313 8,600 -1,381 Descending Seattle Center
Tue 11:42:27 PM 47.8261 -122.4597 133° Southeast 255 293 7,300 -1,587 Descending Seattle Center
Tue 11:43:28 PM 47.7567 -122.3958 148° Southeast 285 328 5,400 -1,525 Descending Seattle Center
Tue 11:44:29 PM 47.6917 -122.3397 150° Southeast 263 303 4,200 -934 Descending Seattle Center
Tue 11:45:30 PM 47.6258 -122.3167 167° South 242 278 3,500 -942 Descending Seattle Center
Tue 11:46:30 PM 47.5639 -122.3181 181° South 210 242 2,300 -1,041 Descending Seattle Center
Tue 11:47:31 PM 47.5150 -122.3189 181° South 174 200 1,400 -787 Descending Seattle Center
Tue 11:48:32 PM 47.4769 -122.3169 178° South 128 147 700 -465 Descending Seattle Center
Tue 11:49:40 PM 47.4369 -122.3183 181° South 136 157 400 -265 Descending Seattle Center
Tue 11:51:00 PM 47.4333 -122.3000 170° South  Level FlightAware Approximate

Login

Don't have an account? Register now (free) for customized features, flight alerts, and more!